Time;durP1;ratioP1;P1;durP2;ratioP2;P2;SDS_P1;SDS_P2;PMS_P1;PMS_P2;Temp;Humidity;BMP_temperature;BMP_pressure;BME280_temperature;BME280_humidity;BME280_pressure;Samples;Min_cycle;Max_cycle;Signal;HPM_P1;HPM_P2
2021/07/05 00:01:12;;;;;;;0.50;0.20;;;15.90;99.90;;;;;;4977726;28;20226;-84
2021/07/05 00:03:37;;;;;;;1.48;0.32;;;15.90;99.90;;;;;;4991121;28;20512;-85
2021/07/05 00:06:04;;;;;;;3.35;0.50;;;15.90;99.90;;;;;;4995535;28;20434;-84
2021/07/05 00:08:29;;;;;;;1.05;0.30;;;15.90;99.90;;;;;;4995707;28;20034;-84
2021/07/05 00:10:55;;;;;;;1.38;0.40;;;15.90;99.90;;;;;;4994523;28;20036;-84
2021/07/05 00:13:21;;;;;;;1.23;0.50;;;15.80;99.90;;;;;;4977133;28;20452;-84
2021/07/05 00:15:47;;;;;;;2.85;0.47;;;15.80;99.90;;;;;;4976923;28;20031;-84
2021/07/05 00:18:13;;;;;;;1.08;0.20;;;15.80;99.90;;;;;;4977095;28;20166;-85
2021/07/05 00:20:42;;;;;;;0.88;0.30;;;15.80;99.90;;;;;;4977818;28;20065;-84
2021/07/05 00:23:08;;;;;;;1.30;0.50;;;15.90;99.90;;;;;;4985895;28;20052;-84
2021/07/05 00:25:35;;;;;;;1.95;0.47;;;15.90;99.90;;;;;;4979360;28;20488;-83
2021/07/05 00:28:00;;;;;;;0.85;0.30;;;15.90;99.90;;;;;;4976893;28;20065;-84
2021/07/05 00:30:26;;;;;;;0.90;0.22;;;16.00;99.90;;;;;;4978255;28;20027;-84
2021/07/05 00:32:54;;;;;;;1.00;0.38;;;16.00;99.90;;;;;;4976327;28;20053;-84
2021/07/05 00:35:21;;;;;;;1.35;0.50;;;15.90;99.90;;;;;;4977164;28;20477;-84
2021/07/05 00:37:48;;;;;;;1.05;0.40;;;15.90;99.90;;;;;;4974858;28;20406;-84
2021/07/05 00:40:15;;;;;;;0.70;0.40;;;15.90;99.90;;;;;;4976053;28;20035;-84
2021/07/05 00:42:40;;;;;;;1.88;0.38;;;15.90;99.90;;;;;;4978523;28;20404;-84
2021/07/05 00:45:09;;;;;;;1.15;0.40;;;15.80;99.90;;;;;;4977766;28;20035;-84
2021/07/05 00:47:35;;;;;;;1.65;0.35;;;15.80;99.90;;;;;;4977995;28;20118;-83
2021/07/05 00:50:03;;;;;;;1.15;0.40;;;15.80;99.90;;;;;;4976158;28;20110;-84
2021/07/05 00:52:29;;;;;;;1.45;0.38;;;15.80;99.90;;;;;;4976547;28;20031;-85
2021/07/05 00:54:54;;;;;;;2.65;0.63;;;15.80;99.90;;;;;;4977712;28;20128;-84
2021/07/05 00:57:20;;;;;;;2.20;0.30;;;15.80;99.90;;;;;;4975525;28;20082;-85
2021/07/05 00:59:53;;;;;;;2.50;0.43;;;15.90;99.90;;;;;;4976832;28;20031;-84
2021/07/05 01:02:21;;;;;;;1.25;0.38;;;15.90;99.90;;;;;;4977514;28;20094;-84
2021/07/05 01:04:47;;;;;;;0.77;0.30;;;16.00;99.90;;;;;;4975310;28;20027;-84
2021/07/05 01:07:13;;;;;;;1.38;0.30;;;16.00;99.90;;;;;;4976548;28;20042;-85
2021/07/05 01:09:40;;;;;;;1.42;0.30;;;16.00;99.90;;;;;;4975188;28;20357;-85
2021/07/05 01:12:06;;;;;;;0.93;0.30;;;16.10;99.90;;;;;;4974890;28;20036;-85
2021/07/05 01:14:32;;;;;;;1.10;0.45;;;16.10;99.90;;;;;;4974481;28;20051;-85
2021/07/05 01:16:58;;;;;;;1.38;0.38;;;16.10;99.90;;;;;;4974941;28;20420;-85
2021/07/05 01:19:24;;;;;;;2.17;0.57;;;16.10;99.90;;;;;;4974739;28;20493;-85
2021/07/05 01:21:50;;;;;;;0.85;0.30;;;16.20;99.90;;;;;;4975382;28;20066;-84
2021/07/05 01:24:16;;;;;;;0.95;0.40;;;16.20;99.90;;;;;;4985655;28;20027;-84
2021/07/05 01:26:41;;;;;;;2.85;0.52;;;16.20;99.90;;;;;;4974353;28;20479;-83
2021/07/05 01:29:07;;;;;;;1.70;0.43;;;16.20;99.90;;;;;;4973896;28;20027;-84
2021/07/05 01:31:34;;;;;;;0.77;0.25;;;16.30;99.90;;;;;;4982349;28;20034;-85
2021/07/05 01:34:01;;;;;;;1.30;0.50;;;16.30;99.90;;;;;;4979265;28;20077;-85
2021/07/05 01:36:27;;;;;;;2.40;0.68;;;16.30;99.90;;;;;;4981199;28;20089;-85
2021/07/05 01:38:53;;;;;;;1.70;0.32;;;16.30;99.90;;;;;;4975200;28;20265;-83
2021/07/05 01:41:19;;;;;;;0.95;0.50;;;16.40;99.90;;;;;;4990255;28;20038;-84
2021/07/05 01:43:46;;;;;;;0.88;0.50;;;16.40;99.90;;;;;;4992554;28;20104;-85
2021/07/05 01:46:12;;;;;;;1.02;0.40;;;16.40;99.90;;;;;;4978689;28;20038;-84
2021/07/05 01:48:38;;;;;;;0.82;0.35;;;16.40;99.90;;;;;;4979912;28;20034;-84
2021/07/05 01:51:04;;;;;;;1.27;0.40;;;16.20;99.90;;;;;;4994192;28;20053;-84
2021/07/05 01:53:29;;;;;;;0.63;0.30;;;16.20;99.90;;;;;;4993603;28;20031;-84
2021/07/05 01:55:55;;;;;;;2.25;0.47;;;16.20;99.90;;;;;;4975849;28;20026;-85
2021/07/05 01:58:21;;;;;;;1.90;0.50;;;16.20;99.90;;;;;;4974443;28;20580;-84
2021/07/05 02:00:48;;;;;;;4.35;0.60;;;16.10;99.90;;;;;;4974610;28;20039;-84
2021/07/05 02:03:17;;;;;;;2.15;0.47;;;16.10;99.90;;;;;;4976929;28;20050;-84
2021/07/05 02:05:44;;;;;;;0.95;0.28;;;16.20;99.90;;;;;;4980367;28;20030;-84
2021/07/05 02:08:12;;;;;;;1.38;0.30;;;16.20;99.90;;;;;;4978652;28;20079;-84
2021/07/05 02:10:39;;;;;;;2.53;0.47;;;16.20;99.90;;;;;;4977407;28;20033;-84
2021/07/05 02:13:15;;;;;;;1.25;0.52;;;16.20;99.90;;;;;;4978273;28;20046;-84
2021/07/05 02:15:41;;;;;;;0.85;0.40;;;16.20;99.90;;;;;;4977031;28;20030;-84
2021/07/05 02:18:08;;;;;;;2.40;0.40;;;16.10;99.90;;;;;;4977117;28;20100;-85
2021/07/05 02:20:34;;;;;;;3.63;0.60;;;16.00;99.90;;;;;;4995630;23;20054;-88
2021/07/05 02:23:01;;;;;;;2.55;0.68;;;15.90;99.90;;;;;;4970788;28;20038;-89
2021/07/05 02:25:29;;;;;;;1.23;0.38;;;15.90;99.90;;;;;;4963186;28;20085;-88
2021/07/05 02:27:58;;;;;;;1.42;0.40;;;15.90;99.90;;;;;;4980844;28;20035;-88
2021/07/05 02:30:25;;;;;;;0.93;0.40;;;15.90;99.90;;;;;;4959385;28;20043;-88
2021/07/05 02:32:52;;;;;;;1.13;0.40;;;15.80;99.90;;;;;;4961835;28;20015;-88
2021/07/05 02:35:22;;;;;;;1.67;0.35;;;15.80;99.90;;;;;;4962777;28;20023;-88
2021/07/05 02:37:50;;;;;;;2.05;0.60;;;15.80;99.90;;;;;;4962814;28;20033;-88
2021/07/05 02:40:19;;;;;;;1.50;0.45;;;15.80;99.90;;;;;;4979703;28;20052;-88
2021/07/05 02:42:45;;;;;;;2.95;0.40;;;15.90;99.90;;;;;;4958710;29;20118;-88
2021/07/05 02:45:16;;;;;;;1.25;0.40;;;15.90;99.90;;;;;;4960341;29;20485;-88
2021/07/05 02:47:41;;;;;;;1.33;0.52;;;15.80;99.90;;;;;;4947262;29;20058;-88
2021/07/05 02:50:09;;;;;;;0.80;0.38;;;15.80;99.90;;;;;;4958667;29;20046;-88
2021/07/05 02:52:35;;;;;;;1.08;0.50;;;15.90;99.90;;;;;;4958628;28;20027;-88
2021/07/05 02:55:02;;;;;;;4.57;0.50;;;15.80;99.90;;;;;;4959037;28;20027;-88
2021/07/05 02:57:31;;;;;;;2.45;0.50;;;15.90;99.90;;;;;;4943473;29;20078;-88
2021/07/05 03:00:12;;;;;;;1.25;0.45;;;15.90;99.90;;;;;;4943012;29;20041;-87
2021/07/05 03:02:39;;;;;;;1.67;0.43;;;16.00;99.90;;;;;;4943249;29;20027;-88
2021/07/05 03:05:07;;;;;;;0.57;0.40;;;16.00;99.90;;;;;;4943009;29;20027;-88
2021/07/05 03:07:34;;;;;;;1.85;0.60;;;15.90;99.90;;;;;;4958627;28;20039;-88
2021/07/05 03:10:00;;;;;;;0.70;0.40;;;15.90;99.90;;;;;;4957428;29;20135;-88
2021/07/05 03:12:26;;;;;;;1.02;0.40;;;15.90;99.90;;;;;;4958095;28;20091;-88
2021/07/05 03:14:53;;;;;;;2.90;0.40;;;15.90;99.90;;;;;;4940433;29;20043;-88
2021/07/05 03:17:19;;;;;;;4.35;0.70;;;15.90;99.90;;;;;;4959957;29;20114;-89
2021/07/05 03:19:45;;;;;;;1.70;0.60;;;15.90;99.90;;;;;;4942240;29;20027;-89
2021/07/05 03:22:11;;;;;;;1.13;0.45;;;15.90;99.90;;;;;;4957257;29;20038;-88
2021/07/05 03:24:40;;;;;;;1.92;0.63;;;16.10;99.90;;;;;;4943951;29;20023;-88
2021/07/05 03:27:06;;;;;;;3.05;0.52;;;15.90;99.90;;;;;;4958747;29;20038;-88
2021/07/05 03:29:31;;;;;;;2.42;0.70;;;15.90;99.90;;;;;;4950721;28;20028;-88
2021/07/05 03:31:59;;;;;;;1.13;0.40;;;15.90;99.90;;;;;;4958542;29;20023;-88
2021/07/05 03:34:24;;;;;;;1.95;0.68;;;15.90;99.90;;;;;;4958752;29;20035;-88
2021/07/05 03:36:50;;;;;;;2.38;0.57;;;15.90;99.90;;;;;;4963354;28;20027;-88
2021/07/05 03:39:15;;;;;;;1.40;0.85;;;15.90;99.90;;;;;;4959000;28;20031;-88
2021/07/05 03:41:41;;;;;;;1.13;0.40;;;15.80;99.90;;;;;;4959007;28;20038;-88
2021/07/05 03:44:07;;;;;;;1.48;0.40;;;15.80;99.90;;;;;;4975966;28;20078;-88
2021/07/05 03:46:32;;;;;;;3.78;0.50;;;15.80;99.90;;;;;;4958044;28;20050;-88
2021/07/05 03:48:58;;;;;;;1.15;0.50;;;15.80;99.90;;;;;;4958262;28;20560;-88
2021/07/05 03:51:23;;;;;;;1.15;0.50;;;15.80;99.90;;;;;;4958456;28;20118;-88
2021/07/05 03:53:49;;;;;;;0.80;0.40;;;15.80;99.90;;;;;;4958526;28;20058;-88
2021/07/05 03:56:14;;;;;;;1.88;0.80;;;15.80;99.90;;;;;;4975128;28;20097;-88
2021/07/05 03:58:40;;;;;;;1.15;0.40;;;15.70;99.90;;;;;;4958022;28;20034;-88
2021/07/05 04:01:06;;;;;;;0.98;0.45;;;15.70;99.90;;;;;;4974013;28;20501;-88
2021/07/05 04:03:31;;;;;;;4.80;0.60;;;15.50;99.90;;;;;;4970824;28;20030;-88
2021/07/05 04:05:59;;;;;;;2.22;0.52;;;15.70;99.90;;;;;;4958784;28;20090;-88
2021/07/05 04:08:28;;;;;;;1.85;0.50;;;15.70;99.90;;;;;;4956117;28;20050;-88
2021/07/05 04:10:54;;;;;;;1.33;0.52;;;15.70;99.90;;;;;;4955580;28;20065;-88
2021/07/05 04:13:22;;;;;;;1.35;0.43;;;15.70;99.90;;;;;;4969033;28;20450;-89
2021/07/05 04:15:51;;;;;;;1.67;0.50;;;15.70;99.90;;;;;;4957051;28;20054;-88
2021/07/05 04:18:17;;;;;;;2.45;0.55;;;15.80;99.90;;;;;;4968637;28;20393;-88
2021/07/05 04:20:43;;;;;;;0.98;0.50;;;15.90;99.90;;;;;;4971425;28;20038;-88
2021/07/05 04:23:08;;;;;;;2.03;0.50;;;15.90;99.90;;;;;;4962957;28;20452;-88
2021/07/05 04:25:35;;;;;;;1.90;0.50;;;16.00;99.90;;;;;;4955582;28;20177;-88
2021/07/05 04:28:00;;;;;;;1.50;0.40;;;15.90;99.90;;;;;;4957025;28;20038;-89
2021/07/05 04:30:27;;;;;;;1.58;0.60;;;15.90;99.90;;;;;;4939130;28;20033;-88
2021/07/05 04:32:53;;;;;;;2.63;0.60;;;16.10;99.90;;;;;;4966454;28;20034;-89
2021/07/05 04:35:21;;;;;;;1.23;0.52;;;16.00;99.90;;;;;;4971959;28;20035;-89
2021/07/05 04:37:48;;;;;;;2.00;0.55;;;16.00;99.90;;;;;;4962244;28;20148;-88
2021/07/05 04:40:23;;;;;;;2.72;0.60;;;16.20;99.90;;;;;;4952152;28;20110;-91
2021/07/05 04:42:49;;;;;;;2.50;0.88;;;15.90;99.90;;;;;;4944351;28;20026;-89
2021/07/05 04:45:17;;;;;;;1.85;0.55;;;15.80;99.90;;;;;;4971995;28;20027;-89
2021/07/05 04:47:43;;;;;;;1.00;0.43;;;15.90;99.90;;;;;;4956945;28;20027;-86
2021/07/05 04:50:11;;;;;;;2.10;0.82;;;15.80;99.90;;;;;;4957448;28;20653;-87
2021/07/05 04:52:38;;;;;;;3.28;0.50;;;15.90;99.90;;;;;;4970258;28;20066;-86
2021/07/05 04:55:06;;;;;;;3.03;0.73;;;15.80;99.90;;;;;;4971920;28;20027;-87
2021/07/05 04:57:32;;;;;;;5.88;0.60;;;15.90;99.90;;;;;;4968089;28;20046;-87
2021/07/05 04:59:58;;;;;;;1.88;0.52;;;16.00;99.90;;;;;;4953576;28;20545;-87
2021/07/05 05:02:24;;;;;;;0.60;0.32;;;16.00;99.90;;;;;;4968498;28;20115;-87
2021/07/05 05:04:51;;;;;;;1.75;0.40;;;16.10;99.90;;;;;;4971012;28;20039;-87
2021/07/05 05:07:17;;;;;;;2.22;0.82;;;16.10;99.90;;;;;;4957599;28;20059;-88
2021/07/05 05:09:42;;;;;;;2.20;0.80;;;16.20;99.90;;;;;;4970887;28;20035;-89
2021/07/05 05:12:09;;;;;;;2.03;0.70;;;16.30;99.90;;;;;;4954467;28;20386;-88
2021/07/05 05:14:34;;;;;;;1.13;0.43;;;16.40;99.90;;;;;;4967386;28;20114;-86
2021/07/05 05:17:00;;;;;;;2.60;0.70;;;16.40;99.90;;;;;;4955321;28;20121;-88
2021/07/05 05:19:25;;;;;;;2.33;0.80;;;16.50;99.90;;;;;;4963160;28;20030;-87
2021/07/05 05:21:51;;;;;;;1.55;0.50;;;16.50;99.90;;;;;;4970399;28;20097;-86
2021/07/05 05:24:20;;;;;;;1.88;0.60;;;16.50;99.90;;;;;;4959409;28;20035;-88
2021/07/05 05:26:45;;;;;;;2.15;0.50;;;16.50;99.90;;;;;;4949614;28;20035;-86
2021/07/05 05:29:11;;;;;;;4.00;0.90;;;16.60;99.90;;;;;;4958734;28;20567;-87
2021/07/05 05:31:37;;;;;;;5.93;0.63;;;17.00;99.90;;;;;;4970133;28;20026;-88
2021/07/05 05:34:03;;;;;;;1.13;0.45;;;16.70;99.90;;;;;;4958578;28;20058;-89
2021/07/05 05:36:30;;;;;;;1.33;0.60;;;16.90;99.90;;;;;;4962455;28;20034;-90
2021/07/05 05:38:56;;;;;;;1.85;0.52;;;16.90;99.90;;;;;;4972669;28;20062;-90
2021/07/05 05:41:25;;;;;;;1.33;0.52;;;16.90;99.90;;;;;;4966176;28;20477;-89
2021/07/05 05:43:53;;;;;;;2.53;0.60;;;16.90;99.90;;;;;;4957198;28;20488;-91
2021/07/05 05:46:19;;;;;;;1.73;0.60;;;16.80;99.90;;;;;;4973497;28;20035;-90
2021/07/05 05:48:49;;;;;;;1.58;0.40;;;17.00;99.90;;;;;;4962185;28;20031;-90
2021/07/05 05:51:16;;;;;;;1.42;0.60;;;16.90;99.90;;;;;;4956492;28;20030;-89
2021/07/05 05:53:43;;;;;;;2.10;0.60;;;16.90;99.90;;;;;;4958085;28;20034;-88
2021/07/05 05:56:09;;;;;;;1.45;0.63;;;16.80;99.90;;;;;;4974484;28;20114;-89
2021/07/05 05:58:40;;;;;;;1.80;0.60;;;16.80;99.90;;;;;;4964156;28;20165;-89
2021/07/05 06:01:06;;;;;;;1.92;0.47;;;16.90;99.90;;;;;;4973379;28;20042;-89
2021/07/05 06:03:31;;;;;;;1.45;0.45;;;16.70;99.90;;;;;;4974853;28;20027;-87
2021/07/05 06:05:57;;;;;;;1.25;0.50;;;16.70;99.90;;;;;;4973059;28;20154;-88
2021/07/05 06:08:23;;;;;;;1.27;0.47;;;16.80;99.90;;;;;;4958669;28;20031;-88
2021/07/05 06:10:48;;;;;;;1.10;0.50;;;16.90;99.90;;;;;;4973935;28;20038;-88
2021/07/05 06:13:14;;;;;;;1.27;0.63;;;16.90;99.90;;;;;;4975053;28;20023;-87
2021/07/05 06:15:42;;;;;;;1.33;0.70;;;16.80;99.90;;;;;;4958935;28;20062;-86
2021/07/05 06:18:08;;;;;;;1.10;0.57;;;16.80;99.90;;;;;;4974200;28;20130;-87
2021/07/05 06:20:34;;;;;;;2.45;0.60;;;16.70;99.90;;;;;;4973251;28;20544;-86
2021/07/05 06:22:59;;;;;;;1.33;0.50;;;16.70;99.90;;;;;;4969319;28;20170;-88
2021/07/05 06:25:25;;;;;;;1.17;0.50;;;16.70;99.90;;;;;;4954119;29;20039;-88
2021/07/05 06:27:51;;;;;;;2.58;0.50;;;16.60;99.90;;;;;;4958231;28;20640;-87
2021/07/05 06:30:17;;;;;;;2.85;0.65;;;16.70;99.90;;;;;;4960947;28;20019;-87
2021/07/05 06:32:44;;;;;;;3.50;0.73;;;16.70;99.90;;;;;;4961079;28;20031;-87
2021/07/05 06:35:12;;;;;;;2.25;0.70;;;16.60;99.90;;;;;;4973796;28;20134;-87
2021/07/05 06:37:38;;;;;;;1.20;0.55;;;16.60;99.90;;;;;;4972085;28;20026;-86
2021/07/05 06:40:06;;;;;;;6.63;4.13;;;16.60;99.90;;;;;;4973590;28;20654;-86
2021/07/05 06:42:34;;;;;;;1.92;0.57;;;16.60;99.90;;;;;;4958130;28;20031;-86
2021/07/05 06:44:59;;;;;;;1.48;0.45;;;16.80;99.90;;;;;;4954863;29;20104;-87
2021/07/05 06:47:25;;;;;;;3.63;0.55;;;16.70;99.90;;;;;;4953204;28;20134;-87
2021/07/05 06:49:51;;;;;;;2.45;0.65;;;16.80;99.90;;;;;;4952512;29;20039;-87
2021/07/05 06:52:16;;;;;;;1.55;0.50;;;16.70;99.90;;;;;;4955995;28;20054;-87
2021/07/05 06:54:42;;;;;;;2.33;0.70;;;16.90;99.90;;;;;;4953788;29;20078;-87
2021/07/05 06:57:29;;;;;;;3.17;0.70;;;16.80;99.90;;;;;;4954355;29;20031;-86
2021/07/05 06:59:54;;;;;;;1.30;0.60;;;16.80;99.90;;;;;;4953460;29;20090;-87
2021/07/05 07:02:19;;;;;;;1.30;0.60;;;16.90;99.90;;;;;;4953988;28;20039;-86
2021/07/05 07:04:45;;;;;;;3.03;0.82;;;16.90;99.90;;;;;;4973456;28;20109;-84
2021/07/05 07:07:10;;;;;;;2.60;0.70;;;17.00;99.90;;;;;;4955752;28;20097;-83
2021/07/05 07:09:36;;;;;;;2.08;0.80;;;17.00;99.90;;;;;;4964960;28;20311;-84
2021/07/05 07:12:02;;;;;;;1.90;0.52;;;17.00;99.90;;;;;;4952467;29;20027;-83
2021/07/05 07:14:27;;;;;;;2.38;0.65;;;17.00;99.90;;;;;;4953699;29;20118;-83
2021/07/05 07:17:02;;;;;;;1.02;0.47;;;17.00;99.90;;;;;;4955445;28;20031;-84
2021/07/05 07:19:28;;;;;;;2.25;0.52;;;17.00;99.90;;;;;;4969843;28;20031;-83
2021/07/05 07:21:54;;;;;;;2.08;0.60;;;17.10;99.90;;;;;;4972383;28;20045;-85
2021/07/05 07:24:19;;;;;;;3.53;0.60;;;17.00;99.90;;;;;;4968392;28;20101;-86
2021/07/05 07:26:46;;;;;;;1.77;0.45;;;17.00;99.90;;;;;;4955229;28;20034;-85
2021/07/05 07:29:13;;;;;;;1.58;0.60;;;17.00;99.90;;;;;;4955945;28;20053;-86
2021/07/05 07:31:39;;;;;;;0.73;0.43;;;17.10;99.90;;;;;;4953746;28;20035;-83
2021/07/05 07:34:06;;;;;;;2.08;0.57;;;17.20;99.90;;;;;;4973011;28;20516;-81
2021/07/05 07:36:31;;;;;;;2.25;0.60;;;17.30;99.90;;;;;;4973656;28;20031;-83
2021/07/05 07:39:06;;;;;;;2.88;0.50;;;17.20;99.90;;;;;;4954209;28;20043;-78
2021/07/05 07:41:33;;;;;;;1.60;0.70;;;17.40;99.90;;;;;;4953727;29;20031;-78
2021/07/05 07:44:01;;;;;;;1.50;0.57;;;17.40;99.90;;;;;;4952534;28;20061;-77
2021/07/05 07:46:26;;;;;;;2.25;0.60;;;17.50;99.90;;;;;;4936102;28;20035;-77
2021/07/05 07:48:52;;;;;;;0.90;0.50;;;17.60;99.90;;;;;;4952714;29;20045;-76
2021/07/05 07:51:18;;;;;;;2.47;0.63;;;17.70;99.90;;;;;;4935652;29;20142;-82
2021/07/05 07:53:44;;;;;;;1.75;0.60;;;17.80;99.90;;;;;;4953282;29;20028;-82
2021/07/05 07:56:09;;;;;;;2.80;0.80;;;17.80;99.90;;;;;;4953128;28;20042;-81
2021/07/05 07:58:35;;;;;;;3.70;0.80;;;17.80;99.90;;;;;;4935852;29;20038;-82
2021/07/05 08:01:00;;;;;;;1.92;0.70;;;17.80;99.90;;;;;;4952385;28;20034;-81
2021/07/05 08:03:26;;;;;;;1.35;0.50;;;17.90;99.90;;;;;;4955199;28;20473;-82
2021/07/05 08:05:54;;;;;;;1.83;0.57;;;18.00;99.90;;;;;;4977671;28;20031;-80
2021/07/05 08:08:20;;;;;;;3.92;0.60;;;17.90;99.90;;;;;;4963034;28;20035;-81
2021/07/05 08:10:46;;;;;;;1.70;0.60;;;18.00;99.90;;;;;;4976619;28;20499;-81
2021/07/05 08:13:11;;;;;;;4.22;0.55;;;18.00;99.90;;;;;;4955575;29;20042;-82
2021/07/05 08:15:37;;;;;;;1.48;0.40;;;17.90;99.90;;;;;;4962161;28;20026;-81
2021/07/05 08:18:03;;;;;;;2.33;0.43;;;17.90;99.90;;;;;;4958660;28;20026;-81
2021/07/05 08:20:28;;;;;;;4.00;0.68;;;17.90;99.90;;;;;;4947596;28;20030;-81
2021/07/05 08:22:56;;;;;;;1.83;0.50;;;17.80;99.90;;;;;;4973479;28;20584;-81
2021/07/05 08:25:24;;;;;;;1.67;0.60;;;17.80;99.90;;;;;;4960772;28;20711;-81
2021/07/05 08:27:50;;;;;;;2.13;0.45;;;17.80;99.90;;;;;;4973507;28;20038;-81
2021/07/05 08:30:19;;;;;;;1.75;0.50;;;17.90;99.90;;;;;;4944291;28;20441;-81
2021/07/05 08:32:45;;;;;;;1.27;0.45;;;17.80;99.90;;;;;;4939917;29;20055;-81
2021/07/05 08:35:10;;;;;;;1.08;0.47;;;17.90;99.90;;;;;;4940037;29;20023;-81
2021/07/05 08:37:37;;;;;;;2.00;0.90;;;17.80;99.90;;;;;;4956722;28;20031;-81
2021/07/05 08:40:04;;;;;;;2.00;0.40;;;17.90;99.90;;;;;;4957436;29;20027;-81
2021/07/05 08:42:31;;;;;;;2.38;0.50;;;17.90;99.90;;;;;;4971520;28;20054;-84
2021/07/05 08:44:56;;;;;;;1.40;0.50;;;17.90;99.90;;;;;;4969160;28;20041;-84
2021/07/05 08:47:25;;;;;;;0.95;0.50;;;18.00;99.90;;;;;;4976181;28;20122;-82
2021/07/05 08:49:50;;;;;;;2.33;0.80;;;17.80;99.90;;;;;;4976643;28;20114;-82
2021/07/05 08:52:17;;;;;;;1.25;0.30;;;17.90;99.90;;;;;;4970809;28;20090;-82
2021/07/05 08:54:42;;;;;;;2.65;0.52;;;17.90;99.90;;;;;;4964128;28;20023;-83
2021/07/05 08:57:26;;;;;;;1.08;0.52;;;18.00;99.90;;;;;;4971876;28;20377;-83
2021/07/05 08:59:53;;;;;;;1.70;0.50;;;18.10;99.90;;;;;;4963199;28;20069;-83
2021/07/05 09:02:18;;;;;;;2.10;0.45;;;18.00;99.90;;;;;;4958258;28;20032;-83
2021/07/05 09:04:46;;;;;;;3.92;0.80;;;18.10;99.90;;;;;;4951384;29;20034;-83
2021/07/05 09:07:12;;;;;;;2.30;0.57;;;18.10;99.90;;;;;;4952630;29;20039;-84
2021/07/05 09:09:38;;;;;;;2.03;0.60;;;18.10;99.90;;;;;;4945702;29;20110;-83
2021/07/05 09:12:06;;;;;;;2.72;0.50;;;18.00;99.90;;;;;;4953931;28;20020;-83
2021/07/05 09:14:32;;;;;;;1.30;0.50;;;18.00;99.90;;;;;;4940328;29;20034;-81
2021/07/05 09:16:58;;;;;;;3.20;0.52;;;18.10;99.90;;;;;;4975249;28;20030;-81
2021/07/05 09:19:30;;;;;;;2.08;0.47;;;18.10;99.90;;;;;;4958270;29;20457;-82
2021/07/05 09:22:01;;;;;;;1.48;0.40;;;18.10;99.90;;;;;;4960012;29;20037;-83
2021/07/05 09:24:31;;;;;;;1.17;0.50;;;18.10;99.90;;;;;;4959768;29;20031;-81
2021/07/05 09:27:23;;;;;;;1.10;0.28;;;18.20;99.90;;;;;;4940053;29;20493;-83
2021/07/05 09:29:49;;;;;;;;;;;18.00;99.90;;;;;;4974162;23;20427;-86
2021/07/05 09:32:26;;;;;;;0.70;0.30;;;18.10;99.90;;;;;;4992523;28;19910;-86
2021/07/05 09:34:53;;;;;;;0.22;0.13;;;18.00;99.90;;;;;;5003436;28;20663;-86
2021/07/05 09:37:21;;;;;;;1.58;0.30;;;17.90;99.90;;;;;;4987970;28;20117;-86
2021/07/05 09:40:02;;;;;;;1.35;0.55;;;17.80;99.90;;;;;;4984724;28;20031;-86
2021/07/05 09:42:33;;;;;;;0.80;0.40;;;17.90;99.90;;;;;;4975223;28;20102;-86
2021/07/05 09:45:00;;;;;;;1.23;0.30;;;17.80;99.90;;;;;;4973650;28;20527;-86
2021/07/05 09:47:26;;;;;;;1.90;0.43;;;17.70;99.90;;;;;;4972696;28;20023;-87
2021/07/05 09:49:54;;;;;;;0.80;0.32;;;17.70;99.90;;;;;;4969666;28;20049;-87
2021/07/05 09:52:24;;;;;;;2.05;0.55;;;17.50;99.90;;;;;;4973736;28;20069;-87
2021/07/05 09:54:52;;;;;;;0.77;0.30;;;17.50;99.90;;;;;;4986654;28;20113;-87
2021/07/05 09:57:25;;;;;;;1.98;0.30;;;17.60;99.90;;;;;;4972992;28;20102;-86
2021/07/05 10:00:07;;;;;;;1.83;0.40;;;17.80;99.90;;;;;;4970767;28;20400;-87
2021/07/05 10:02:34;;;;;;;0.75;0.40;;;17.80;99.90;;;;;;4987665;28;20034;-87
2021/07/05 10:05:17;;;;;;;2.15;0.70;;;17.80;99.90;;;;;;4973236;28;20035;-86
2021/07/05 10:07:43;;;;;;;3.88;0.47;;;17.80;99.90;;;;;;4987252;28;20035;-87
2021/07/05 10:10:11;;;;;;;0.50;0.22;;;17.90;99.90;;;;;;4971086;28;20083;-86
2021/07/05 10:12:37;;;;;;;2.17;0.40;;;17.80;99.90;;;;;;4971205;28;20038;-87
2021/07/05 10:15:11;;;;;;;0.57;0.30;;;17.80;99.90;;;;;;4971984;28;20022;-87
2021/07/05 10:17:39;;;;;;;0.30;0.20;;;17.70;99.90;;;;;;4988968;28;20098;-87
2021/07/05 10:20:11;;;;;;;1.75;0.30;;;17.60;99.90;;;;;;4973409;28;20061;-87
2021/07/05 10:22:46;;;;;;;1.13;0.20;;;17.50;99.90;;;;;;4973366;28;20031;-87
2021/07/05 10:25:12;;;;;;;1.17;0.20;;;17.50;99.90;;;;;;4973467;28;20505;-86
2021/07/05 10:27:38;;;;;;;1.10;0.40;;;17.40;99.90;;;;;;4971038;28;20037;-87
2021/07/05 10:30:08;;;;;;;1.70;0.50;;;17.60;99.90;;;;;;4989035;28;20081;-86
2021/07/05 10:32:34;;;;;;;1.35;0.60;;;17.50;99.90;;;;;;4976341;28;20133;-86
2021/07/05 10:35:00;;;;;;;1.38;0.50;;;17.60;99.90;;;;;;4990519;28;20022;-87
2021/07/05 10:37:53;;;;;;;1.30;0.45;;;17.70;99.90;;;;;;4973246;28;20156;-87
2021/07/05 10:40:23;;;;;;;0.68;0.30;;;17.70;99.90;;;;;;4984099;28;20117;-86
2021/07/05 10:42:58;;;;;;;0.98;0.38;;;17.80;99.90;;;;;;4989725;28;20034;-87
2021/07/05 10:45:43;;;;;;;1.15;0.47;;;17.90;99.90;;;;;;4974051;28;20114;-86
2021/07/05 10:48:14;;;;;;;2.60;0.50;;;18.00;99.90;;;;;;4973836;28;20022;-89
2021/07/05 10:50:44;;;;;;;1.37;0.57;;;18.10;99.90;;;;;;4988649;28;20022;-87
2021/07/05 10:53:12;;;;;;;0.85;0.30;;;18.10;99.90;;;;;;4990592;28;20022;-90
2021/07/05 10:55:47;;;;;;;1.17;0.50;;;18.00;99.90;;;;;;4990767;28;20019;-88
2021/07/05 10:58:21;;;;;;;0.93;0.30;;;18.00;99.90;;;;;;4971771;28;20113;-86
2021/07/05 11:00:53;;;;;;;1.38;0.60;;;18.10;99.90;;;;;;4985846;28;20507;-86
2021/07/05 11:03:40;;;;;;;1.73;0.40;;;18.10;99.90;;;;;;4971915;28;20034;-88
2021/07/05 11:06:25;;;;;;;0.93;0.47;;;18.10;99.90;;;;;;4988984;28;20039;-88
2021/07/05 11:08:53;;;;;;;0.82;0.40;;;18.20;99.90;;;;;;4986129;28;20049;-88
2021/07/05 11:11:31;;;;;;;3.53;0.55;;;18.30;99.90;;;;;;4971192;28;20022;-89
2021/07/05 11:14:20;;;;;;;1.05;0.30;;;18.40;99.90;;;;;;4970535;28;20023;-87
2021/07/05 11:17:09;;;;;;;0.90;0.40;;;18.50;99.90;;;;;;4970369;28;20038;-88
2021/07/05 11:19:40;;;;;;;1.17;0.50;;;18.60;99.90;;;;;;4970650;28;20130;-88
2021/07/05 11:22:30;;;;;;;2.20;0.37;;;18.60;99.90;;;;;;4971310;28;20027;-87
2021/07/05 11:25:01;;;;;;;2.00;0.40;;;18.70;99.90;;;;;;4969749;28;20273;-87
2021/07/05 11:27:31;;;;;;;1.33;0.40;;;18.80;99.90;;;;;;4970135;28;20034;-87
2021/07/05 11:30:26;;;;;;;4.00;0.43;;;19.00;99.90;;;;;;4973110;28;20088;-87
2021/07/05 11:32:59;;;;;;;0.90;0.40;;;19.20;99.90;;;;;;4990213;28;20050;-87
2021/07/05 11:35:44;;;;;;;1.27;0.32;;;19.20;99.90;;;;;;4988124;28;20054;-87
2021/07/05 11:38:14;;;;;;;1.85;0.55;;;19.20;99.90;;;;;;4975001;28;20089;-87
2021/07/05 11:40:42;;;;;;;0.68;0.30;;;19.30;99.90;;;;;;4974311;28;20031;-87
2021/07/05 11:43:09;;;;;;;1.73;0.43;;;19.30;99.90;;;;;;4992644;28;20041;-87
2021/07/05 11:45:50;;;;;;;1.40;0.52;;;19.10;99.90;;;;;;4970988;28;20118;-87
2021/07/05 11:48:40;;;;;;;1.53;0.47;;;19.00;99.90;;;;;;4972361;28;20037;-87
2021/07/05 11:51:29;;;;;;;2.20;0.50;;;18.90;99.90;;;;;;4988699;28;20025;-87
2021/07/05 11:54:00;;;;;;;1.85;0.40;;;18.80;99.90;;;;;;4973852;28;20061;-87
2021/07/05 11:56:50;;;;;;;0.85;0.30;;;18.80;99.90;;;;;;4988807;28;20026;-87
2021/07/05 11:59:31;;;;;;;1.77;0.55;;;18.80;99.90;;;;;;4972798;28;20114;-87
2021/07/05 12:02:06;;;;;;;1.30;0.50;;;19.00;99.90;;;;;;4979597;28;20029;-88
2021/07/05 12:04:35;;;;;;;0.88;0.40;;;19.00;99.90;;;;;;4973445;28;20074;-87
2021/07/05 12:07:04;;;;;;;2.17;0.50;;;19.30;99.90;;;;;;4973313;28;20117;-87
2021/07/05 12:09:31;;;;;;;0.85;0.30;;;19.20;99.90;;;;;;4988382;28;20042;-87
2021/07/05 12:12:05;;;;;;;0.63;0.20;;;19.10;99.90;;;;;;4972716;28;20077;-87
2021/07/05 12:14:31;;;;;;;2.60;0.50;;;19.20;99.90;;;;;;4973706;28;20019;-87
2021/07/05 12:17:00;;;;;;;1.85;0.50;;;19.00;99.90;;;;;;4974332;28;20044;-87
2021/07/05 12:19:28;;;;;;;1.23;0.50;;;19.00;99.90;;;;;;4971946;28;20426;-86
2021/07/05 12:21:57;;;;;;;2.17;0.60;;;19.00;99.90;;;;;;4964656;28;20237;-87
2021/07/05 12:24:29;;;;;;;2.05;0.40;;;18.90;99.90;;;;;;4989103;28;20031;-87
2021/07/05 12:27:01;;;;;;;1.17;0.52;;;19.00;99.90;;;;;;4971737;28;20039;-87
2021/07/05 12:29:51;;;;;;;1.02;0.40;;;19.10;99.90;;;;;;4969678;28;20091;-87
2021/07/05 12:32:20;;;;;;;1.23;0.45;;;19.30;99.90;;;;;;4973063;28;20026;-86
2021/07/05 12:34:48;;;;;;;1.92;0.50;;;19.50;99.90;;;;;;4971684;28;20022;-87
2021/07/05 12:37:17;;;;;;;0.75;0.35;;;19.70;99.90;;;;;;4971170;28;20090;-86
2021/07/05 12:39:52;;;;;;;1.63;0.40;;;19.90;99.90;;;;;;4972652;28;20501;-87
2021/07/05 12:42:43;;;;;;;0.77;0.30;;;20.10;99.90;;;;;;4972332;28;20031;-86
2021/07/05 12:45:19;;;;;;;1.33;0.40;;;20.30;99.90;;;;;;4981983;28;20039;-87
2021/07/05 12:47:52;;;;;;;1.63;0.40;;;20.50;99.90;;;;;;4982294;28;20042;-87
2021/07/05 12:50:22;;;;;;;1.20;0.47;;;20.70;99.90;;;;;;4983793;28;20034;-87
2021/07/05 12:53:00;;;;;;;0.60;0.25;;;20.90;99.90;;;;;;4969391;28;20058;-87
2021/07/05 12:55:25;;;;;;;1.50;0.40;;;20.90;99.90;;;;;;4983711;28;20695;-87